Time;durP1;ratioP1;P1;durP2;ratioP2;P2;SDS_P1;SDS_P2;PMS_P1;PMS_P2;Temp;Humidity;BMP_temperature;BMP_pressure;BME280_temperature;BME280_humidity;BME280_pressure;Samples;Min_cycle;Max_cycle;Signal;HPM_P1;HPM_P2
2023/09/21 00:00:59;;;;;;;2.77;2.37;;;;;;;;;;5058226;28;20233;-84
2023/09/21 00:03:28;;;;;;;2.37;2.17;;;;;;;;;;5075119;28;20221;-83
2023/09/21 00:05:55;;;;;;;2.20;2.10;;;;;;;;;;5074078;28;20596;-83
2023/09/21 00:08:23;;;;;;;2.30;2.10;;;;;;;;;;5079960;28;20320;-84
2023/09/21 00:10:51;;;;;;;3.03;2.73;;;;;;;;;;5079833;28;20237;-83
2023/09/21 00:13:18;;;;;;;2.97;2.50;;;;;;;;;;5076611;28;20225;-84
2023/09/21 00:15:46;;;;;;;2.50;2.30;;;;;;;;;;5074331;28;20244;-84
2023/09/21 00:18:14;;;;;;;2.10;2.00;;;;;;;;;;5074574;28;20552;-84
2023/09/21 00:20:48;;;;;;;2.53;2.33;;;;;;;;;;5073917;28;20286;-83
2023/09/21 00:23:16;;;;;;;2.30;2.10;;;;;;;;;;5074696;28;20315;-84
2023/09/21 00:25:44;;;;;;;4.70;2.17;;;;;;;;;;5073351;28;20283;-83
2023/09/21 00:28:14;;;;;;;2.87;2.50;;;;;;;;;;5074505;28;20198;-83
2023/09/21 00:30:41;;;;;;;2.30;2.00;;;;;;;;;;5073847;28;20244;-83
2023/09/21 00:33:08;;;;;;;1.80;1.70;;;;;;;;;;5074450;28;20232;-84
2023/09/21 00:35:39;;;;;;;3.10;2.40;;;;;;;;;;5073707;28;20319;-83
2023/09/21 00:38:09;;;;;;;3.33;2.13;;;;;;;;;;5074021;28;20299;-83
2023/09/21 00:40:38;;;;;;;2.40;2.00;;;;;;;;;;5073694;28;20609;-84
2023/09/21 00:43:07;;;;;;;2.40;2.20;;;;;;;;;;5074165;28;20241;-84
2023/09/21 00:45:37;;;;;;;2.67;2.20;;;;;;;;;;5073429;28;20229;-84
2023/09/21 00:48:13;;;;;;;6.30;2.27;;;;;;;;;;5073907;28;20205;-84
2023/09/21 00:50:41;;;;;;;3.60;2.10;;;;;;;;;;5073388;28;20656;-83
2023/09/21 00:53:12;;;;;;;2.10;2.00;;;;;;;;;;5073523;28;20268;-83
2023/09/21 00:55:40;;;;;;;2.80;2.50;;;;;;;;;;5073528;28;20235;-83
2023/09/21 00:58:08;;;;;;;3.07;2.30;;;;;;;;;;5073711;28;20211;-83
2023/09/21 01:00:39;;;;;;;2.27;2.07;;;;;;;;;;5073268;28;20237;-84
2023/09/21 01:03:11;;;;;;;2.30;2.00;;;;;;;;;;5073884;28;20253;-84
2023/09/21 01:05:39;;;;;;;4.37;2.47;;;;;;;;;;5057850;28;20233;-83
2023/09/21 01:08:10;;;;;;;2.43;2.20;;;;;;;;;;5047010;28;20648;-83
2023/09/21 01:10:38;;;;;;;4.17;2.37;;;;;;;;;;5053285;28;20256;-84
2023/09/21 01:13:07;;;;;;;2.87;2.30;;;;;;;;;;5053469;28;20226;-84
2023/09/21 01:15:34;;;;;;;3.40;2.70;;;;;;;;;;5053046;28;20272;-84
2023/09/21 01:18:06;;;;;;;2.50;2.30;;;;;;;;;;5052951;28;20232;-84
2023/09/21 01:20:33;;;;;;;6.93;2.40;;;;;;;;;;5053095;28;20238;-83
2023/09/21 01:23:19;;;;;;;2.80;2.40;;;;;;;;;;5053471;28;20225;-83
2023/09/21 01:25:49;;;;;;;2.50;2.13;;;;;;;;;;5064732;28;20236;-84
2023/09/21 01:28:18;;;;;;;2.40;2.20;;;;;;;;;;5072979;28;20660;-84
2023/09/21 01:30:45;;;;;;;2.40;2.20;;;;;;;;;;5072680;28;20237;-83
2023/09/21 01:33:12;;;;;;;2.53;2.30;;;;;;;;;;5072931;28;20214;-84
2023/09/21 01:35:40;;;;;;;2.20;2.10;;;;;;;;;;5072933;28;20232;-84
2023/09/21 01:38:07;;;;;;;2.10;1.90;;;;;;;;;;5073144;28;20209;-84
2023/09/21 01:40:35;;;;;;;2.73;1.97;;;;;;;;;;5072067;28;20746;-84
2023/09/21 01:43:07;;;;;;;4.57;2.60;;;;;;;;;;5105164;22;20231;-87
2023/09/21 01:45:34;;;;;;;2.40;2.20;;;;;;;;;;5095804;28;20240;-88
2023/09/21 01:48:08;;;;;;;2.70;2.50;;;;;;;;;;5097737;28;20205;-87
2023/09/21 01:50:35;;;;;;;2.77;2.57;;;;;;;;;;5095534;28;20247;-87
2023/09/21 01:53:04;;;;;;;2.27;2.10;;;;;;;;;;5095814;28;20231;-87
2023/09/21 01:55:32;;;;;;;3.47;2.80;;;;;;;;;;5094584;28;20217;-87
2023/09/21 01:57:59;;;;;;;2.30;2.10;;;;;;;;;;5095059;28;20193;-87
2023/09/21 02:00:29;;;;;;;2.63;2.40;;;;;;;;;;5094706;28;20235;-87
2023/09/21 02:02:56;;;;;;;2.50;2.17;;;;;;;;;;5086218;28;20251;-87
2023/09/21 02:05:24;;;;;;;2.40;2.20;;;;;;;;;;5093098;28;20263;-86
2023/09/21 02:07:51;;;;;;;3.10;2.20;;;;;;;;;;5093738;28;20197;-87
2023/09/21 02:10:18;;;;;;;3.03;2.07;;;;;;;;;;5094224;28;20593;-87
2023/09/21 02:12:54;;;;;;;3.27;2.50;;;;;;;;;;5094810;28;20232;-87
2023/09/21 02:15:21;;;;;;;2.50;2.30;;;;;;;;;;5093991;28;20255;-87
2023/09/21 02:17:49;;;;;;;2.73;2.07;;;;;;;;;;5094261;28;20209;-87
2023/09/21 02:20:18;;;;;;;4.20;2.40;;;;;;;;;;5094318;28;20239;-87
2023/09/21 02:22:46;;;;;;;3.50;2.20;;;;;;;;;;5094257;28;20221;-87
2023/09/21 02:25:13;;;;;;;2.20;2.10;;;;;;;;;;5094074;28;20234;-87
2023/09/21 02:27:41;;;;;;;2.50;2.17;;;;;;;;;;5093943;28;20254;-87
2023/09/21 02:30:12;;;;;;;5.90;2.10;;;;;;;;;;5094055;28;20315;-87
2023/09/21 02:32:39;;;;;;;2.33;2.23;;;;;;;;;;5094544;28;20227;-87
2023/09/21 02:35:13;;;;;;;2.73;2.13;;;;;;;;;;5093655;28;20224;-87
2023/09/21 02:37:40;;;;;;;2.47;2.17;;;;;;;;;;5094024;28;20201;-86
2023/09/21 02:40:08;;;;;;;3.50;2.30;;;;;;;;;;5094197;28;20220;-87
2023/09/21 02:42:35;;;;;;;2.30;2.10;;;;;;;;;;5093611;28;20237;-87
2023/09/21 02:45:04;;;;;;;3.10;2.40;;;;;;;;;;5093663;28;20721;-87
2023/09/21 02:47:31;;;;;;;3.00;2.30;;;;;;;;;;5094071;28;20232;-86
2023/09/21 02:49:59;;;;;;;2.50;2.30;;;;;;;;;;5084979;28;20307;-87
2023/09/21 02:52:27;;;;;;;2.13;1.93;;;;;;;;;;5094299;28;20254;-87
2023/09/21 02:54:55;;;;;;;2.37;2.17;;;;;;;;;;5093490;28;20311;-87
2023/09/21 02:57:22;;;;;;;2.47;2.27;;;;;;;;;;5094157;28;20212;-87
2023/09/21 02:59:51;;;;;;;2.97;2.67;;;;;;;;;;5093079;28;20232;-87
2023/09/21 03:02:18;;;;;;;2.37;2.17;;;;;;;;;;5094101;28;20212;-87
2023/09/21 03:04:46;;;;;;;3.77;2.27;;;;;;;;;;5093269;28;20208;-87
2023/09/21 03:07:14;;;;;;;2.33;2.17;;;;;;;;;;5094399;28;20264;-87
2023/09/21 03:09:42;;;;;;;6.03;2.53;;;;;;;;;;5093294;28;20247;-87
2023/09/21 03:12:09;;;;;;;2.23;2.03;;;;;;;;;;5094022;28;20582;-87
2023/09/21 03:14:37;;;;;;;2.50;2.30;;;;;;;;;;5092458;28;20334;-87
2023/09/21 03:17:05;;;;;;;3.43;2.40;;;;;;;;;;5092527;28;20274;-87
2023/09/21 03:19:32;;;;;;;2.67;2.13;;;;;;;;;;5092494;28;20224;-87
2023/09/21 03:21:59;;;;;;;2.53;2.17;;;;;;;;;;5093592;28;20205;-87
2023/09/21 03:24:26;;;;;;;2.27;2.07;;;;;;;;;;5093163;28;20228;-87
2023/09/21 03:26:54;;;;;;;2.30;2.10;;;;;;;;;;5093573;28;20697;-87
2023/09/21 03:29:21;;;;;;;2.20;2.00;;;;;;;;;;5093335;28;20313;-87
2023/09/21 03:31:48;;;;;;;4.17;2.37;;;;;;;;;;5094024;28;20201;-87
2023/09/21 03:34:15;;;;;;;3.23;2.30;;;;;;;;;;5093202;28;20248;-87
2023/09/21 03:36:42;;;;;;;2.27;2.17;;;;;;;;;;5093927;28;20209;-87
2023/09/21 03:39:10;;;;;;;2.27;2.17;;;;;;;;;;5093199;28;20590;-87
2023/09/21 03:41:37;;;;;;;2.33;2.13;;;;;;;;;;5093599;28;20236;-87
2023/09/21 03:44:06;;;;;;;3.13;2.70;;;;;;;;;;5093159;28;20229;-87
2023/09/21 03:46:34;;;;;;;2.70;2.23;;;;;;;;;;5094043;28;20209;-87
2023/09/21 03:49:01;;;;;;;2.90;2.00;;;;;;;;;;5092689;28;20555;-86
2023/09/21 03:51:29;;;;;;;2.73;2.50;;;;;;;;;;5093582;28;20205;-87
2023/09/21 03:53:59;;;;;;;2.20;2.00;;;;;;;;;;5092622;28;20227;-86
2023/09/21 03:56:26;;;;;;;5.80;2.57;;;;;;;;;;5093291;28;20431;-87
2023/09/21 03:58:55;;;;;;;2.50;2.30;;;;;;;;;;5093213;28;20201;-87
2023/09/21 04:01:23;;;;;;;2.60;2.40;;;;;;;;;;5093961;28;20212;-87
2023/09/21 04:03:53;;;;;;;3.67;2.60;;;;;;;;;;5097121;28;20581;-87
2023/09/21 04:06:20;;;;;;;3.17;2.10;;;;;;;;;;5096819;28;20766;-87
2023/09/21 04:08:47;;;;;;;3.43;2.40;;;;;;;;;;5097291;28;20181;-87
2023/09/21 04:11:14;;;;;;;2.80;2.20;;;;;;;;;;5097924;28;20231;-87
2023/09/21 04:13:41;;;;;;;2.97;2.30;;;;;;;;;;5098173;28;20229;-87
2023/09/21 04:16:08;;;;;;;5.33;2.43;;;;;;;;;;5099676;28;20263;-88
2023/09/21 04:18:37;;;;;;;3.17;2.40;;;;;;;;;;5097080;28;20208;-88
2023/09/21 04:21:08;;;;;;;3.10;2.80;;;;;;;;;;5087931;28;20271;-88
2023/09/21 04:23:35;;;;;;;2.53;2.33;;;;;;;;;;5095896;28;20228;-88
2023/09/21 04:26:02;;;;;;;2.87;2.57;;;;;;;;;;5095987;28;20220;-88
2023/09/21 04:28:29;;;;;;;3.77;2.50;;;;;;;;;;5096733;28;20209;-88
2023/09/21 04:30:56;;;;;;;2.50;2.30;;;;;;;;;;5096243;28;20239;-87
2023/09/21 04:33:24;;;;;;;4.30;2.50;;;;;;;;;;5096688;28;20228;-88
2023/09/21 04:35:52;;;;;;;2.30;2.07;;;;;;;;;;5096332;28;20228;-90
2023/09/21 04:38:19;;;;;;;2.63;2.30;;;;;;;;;;5096908;28;20208;-90
2023/09/21 04:40:48;;;;;;;4.70;2.20;;;;;;;;;;5100698;28;20538;-90
2023/09/21 04:43:16;;;;;;;2.37;2.17;;;;;;;;;;5096908;28;20229;-90
2023/09/21 04:45:43;;;;;;;2.40;2.20;;;;;;;;;;5096045;28;20224;-90
2023/09/21 04:48:10;;;;;;;2.70;2.50;;;;;;;;;;5097002;28;20231;-90
2023/09/21 04:50:37;;;;;;;2.43;2.30;;;;;;;;;;5096162;28;20718;-90
2023/09/21 04:53:05;;;;;;;2.30;2.10;;;;;;;;;;5096391;28;20996;-90
2023/09/21 04:55:32;;;;;;;2.60;2.40;;;;;;;;;;5098332;28;20718;-89
2023/09/21 04:57:59;;;;;;;2.57;2.37;;;;;;;;;;5098288;28;20787;-89
2023/09/21 05:00:27;;;;;;;2.53;2.33;;;;;;;;;;5096207;28;20817;-89
2023/09/21 05:02:54;;;;;;;4.43;2.43;;;;;;;;;;5096271;28;20705;-89
2023/09/21 05:05:24;;;;;;;2.60;2.40;;;;;;;;;;5095931;28;20319;-89
2023/09/21 05:07:51;;;;;;;2.53;2.30;;;;;;;;;;5099483;28;20675;-89
2023/09/21 05:10:20;;;;;;;2.53;2.23;;;;;;;;;;5097158;28;20243;-89
2023/09/21 05:12:48;;;;;;;4.33;2.00;;;;;;;;;;5094848;28;20221;-85
2023/09/21 05:15:15;;;;;;;3.00;2.47;;;;;;;;;;5095016;28;20282;-86
2023/09/21 05:17:43;;;;;;;2.47;2.20;;;;;;;;;;5095133;28;20265;-86
2023/09/21 05:20:10;;;;;;;3.30;2.60;;;;;;;;;;5094273;28;20729;-86
2023/09/21 05:22:39;;;;;;;4.27;2.40;;;;;;;;;;5093642;28;20224;-85
2023/09/21 05:25:07;;;;;;;7.03;2.70;;;;;;;;;;5093788;28;20239;-86
2023/09/21 05:27:36;;;;;;;3.00;2.70;;;;;;;;;;5094972;28;20205;-85
2023/09/21 05:30:04;;;;;;;3.47;2.40;;;;;;;;;;5094498;28;20239;-86
2023/09/21 05:32:32;;;;;;;2.40;2.20;;;;;;;;;;5094977;28;20961;-86
2023/09/21 05:34:59;;;;;;;2.57;2.37;;;;;;;;;;5094072;28;20244;-86
2023/09/21 05:37:27;;;;;;;3.67;2.27;;;;;;;;;;5095276;28;20212;-86
2023/09/21 05:39:54;;;;;;;4.13;2.47;;;;;;;;;;5094145;28;20637;-86
2023/09/21 05:42:23;;;;;;;4.90;2.20;;;;;;;;;;5094663;28;20709;-86
2023/09/21 05:44:52;;;;;;;3.10;2.80;;;;;;;;;;5094146;28;20224;-86
2023/09/21 05:47:19;;;;;;;2.67;2.40;;;;;;;;;;5095343;28;20252;-86
2023/09/21 05:49:46;;;;;;;2.60;2.40;;;;;;;;;;5093906;28;20228;-86
2023/09/21 05:52:16;;;;;;;3.17;2.87;;;;;;;;;;5094742;28;20209;-86
2023/09/21 05:54:44;;;;;;;5.53;2.97;;;;;;;;;;5094093;28;20580;-85
2023/09/21 05:57:11;;;;;;;2.90;2.60;;;;;;;;;;5086546;28;20215;-86
2023/09/21 05:59:38;;;;;;;4.03;2.60;;;;;;;;;;5093642;28;20701;-86
2023/09/21 06:02:13;;;;;;;6.30;2.67;;;;;;;;;;5094217;28;20200;-86
2023/09/21 06:04:41;;;;;;;4.10;2.67;;;;;;;;;;5093931;28;20307;-86
2023/09/21 06:07:09;;;;;;;4.73;2.67;;;;;;;;;;5094367;28;20680;-86
2023/09/21 06:09:36;;;;;;;8.30;2.70;;;;;;;;;;5093994;28;20228;-86
2023/09/21 06:12:03;;;;;;;6.47;2.80;;;;;;;;;;5094196;28;20692;-86
2023/09/21 06:14:31;;;;;;;4.80;2.80;;;;;;;;;;5093762;28;20229;-86
2023/09/21 06:16:58;;;;;;;3.13;2.73;;;;;;;;;;5093898;28;20211;-86
2023/09/21 06:19:27;;;;;;;3.33;2.57;;;;;;;;;;5093671;28;20236;-86
2023/09/21 06:21:56;;;;;;;4.03;3.03;;;;;;;;;;5094154;28;20184;-86
2023/09/21 06:24:24;;;;;;;4.10;2.70;;;;;;;;;;5093159;28;20671;-86
2023/09/21 06:26:52;;;;;;;5.17;3.17;;;;;;;;;;5094110;28;20641;-86
2023/09/21 06:29:22;;;;;;;3.00;2.70;;;;;;;;;;5092849;28;20313;-86
2023/09/21 06:31:52;;;;;;;3.53;2.80;;;;;;;;;;5092948;28;20631;-86
2023/09/21 06:34:22;;;;;;;4.03;2.40;;;;;;;;;;5092281;28;20694;-86
2023/09/21 06:36:50;;;;;;;3.53;2.87;;;;;;;;;;5092872;28;20600;-86
2023/09/21 06:39:18;;;;;;;5.77;2.60;;;;;;;;;;5093200;28;20233;-86
2023/09/21 06:41:47;;;;;;;5.13;2.70;;;;;;;;;;5093880;28;20681;-86
2023/09/21 06:44:14;;;;;;;5.33;2.97;;;;;;;;;;5084781;28;20582;-86
2023/09/21 06:46:42;;;;;;;4.27;3.00;;;;;;;;;;5094047;28;20201;-86
2023/09/21 06:49:09;;;;;;;5.47;3.00;;;;;;;;;;5092787;28;20201;-86
2023/09/21 06:51:36;;;;;;;2.90;2.60;;;;;;;;;;5094002;28;20670;-86
2023/09/21 06:54:05;;;;;;;3.93;2.80;;;;;;;;;;5092971;28;20224;-86
2023/09/21 06:56:32;;;;;;;2.87;2.50;;;;;;;;;;5093625;28;20257;-86
2023/09/21 06:58:59;;;;;;;3.47;2.73;;;;;;;;;;5092917;28;20211;-86
2023/09/21 07:01:26;;;;;;;4.17;2.50;;;;;;;;;;5093637;28;20212;-86
2023/09/21 07:03:53;;;;;;;3.27;2.97;;;;;;;;;;5093601;28;20270;-86
2023/09/21 07:06:20;;;;;;;4.27;2.47;;;;;;;;;;5093314;28;20231;-87
2023/09/21 07:08:47;;;;;;;3.83;2.90;;;;;;;;;;5093863;28;20284;-87
2023/09/21 07:11:19;;;;;;;4.13;3.20;;;;;;;;;;5085083;28;20258;-87
2023/09/21 07:13:47;;;;;;;3.10;2.77;;;;;;;;;;5093868;28;20228;-86
2023/09/21 07:16:14;;;;;;;4.83;3.13;;;;;;;;;;5092863;28;20233;-86
2023/09/21 07:18:42;;;;;;;5.23;3.23;;;;;;;;;;5093396;28;20215;-86
2023/09/21 07:21:09;;;;;;;8.10;3.23;;;;;;;;;;5092855;28;20235;-86
2023/09/21 07:23:36;;;;;;;6.53;2.90;;;;;;;;;;5093471;28;20220;-86
2023/09/21 07:26:04;;;;;;;6.07;3.20;;;;;;;;;;5092821;28;20235;-86
2023/09/21 07:28:32;;;;;;;4.83;3.60;;;;;;;;;;5093209;28;20192;-86
2023/09/21 07:31:01;;;;;;;4.10;2.90;;;;;;;;;;5092746;28;20236;-86
2023/09/21 07:33:30;;;;;;;4.07;3.40;;;;;;;;;;5093626;28;20741;-86
2023/09/21 07:35:57;;;;;;;5.77;3.30;;;;;;;;;;5093809;28;20254;-86
2023/09/21 07:38:27;;;;;;;4.40;3.40;;;;;;;;;;5095922;28;20208;-86
2023/09/21 07:40:54;;;;;;;3.13;2.90;;;;;;;;;;5095477;28;20285;-86
2023/09/21 07:43:21;;;;;;;3.20;2.90;;;;;;;;;;5124010;22;20236;-85
2023/09/21 07:45:50;;;;;;;3.57;3.10;;;;;;;;;;5106494;28;20464;-86
2023/09/21 07:48:19;;;;;;;6.33;3.00;;;;;;;;;;5098760;28;20673;-86
2023/09/21 07:50:46;;;;;;;3.80;3.23;;;;;;;;;;5106129;28;20247;-85
2023/09/21 07:53:13;;;;;;;3.83;3.40;;;;;;;;;;5098118;28;20597;-86
2023/09/21 07:55:42;;;;;;;5.90;3.47;;;;;;;;;;5114619;28;20281;-85
2023/09/21 07:58:10;;;;;;;9.13;3.27;;;;;;;;;;5114659;28;20236;-86
2023/09/21 08:00:37;;;;;;;10.40;3.83;;;;;;;;;;5113214;28;20224;-86
2023/09/21 08:03:05;;;;;;;6.90;4.17;;;;;;;;;;5112700;28;20204;-86
2023/09/21 08:05:33;;;;;;;8.80;3.67;;;;;;;;;;5114366;28;20215;-85
2023/09/21 08:08:00;;;;;;;6.13;3.87;;;;;;;;;;5114219;28;20257;-86
2023/09/21 08:10:27;;;;;;;10.27;3.70;;;;;;;;;;5114396;28;20228;-85
2023/09/21 08:12:54;;;;;;;6.13;4.00;;;;;;;;;;5114608;28;20212;-85
2023/09/21 08:15:22;;;;;;;5.97;3.63;;;;;;;;;;5113970;28;20268;-85
2023/09/21 08:17:49;;;;;;;7.70;3.53;;;;;;;;;;5114488;28;20219;-85
2023/09/21 08:20:17;;;;;;;6.30;3.87;;;;;;;;;;5113383;28;20239;-86
2023/09/21 08:22:47;;;;;;;3.83;3.30;;;;;;;;;;5114372;28;20208;-85
2023/09/21 08:25:14;;;;;;;5.30;3.30;;;;;;;;;;5113090;28;20224;-86
2023/09/21 08:27:42;;;;;;;5.30;3.50;;;;;;;;;;5114269;28;20208;-86
2023/09/21 08:30:10;;;;;;;4.37;3.57;;;;;;;;;;5113575;28;20251;-86
2023/09/21 08:32:39;;;;;;;3.53;3.20;;;;;;;;;;5113993;28;20207;-86
2023/09/21 08:35:07;;;;;;;4.30;3.47;;;;;;;;;;5112999;28;20236;-86
2023/09/21 08:37:36;;;;;;;6.80;3.97;;;;;;;;;;5113970;28;20204;-86
2023/09/21 08:40:06;;;;;;;3.90;3.53;;;;;;;;;;5113809;28;20246;-86
2023/09/21 08:42:35;;;;;;;6.67;3.67;;;;;;;;;;5113753;28;20204;-86
2023/09/21 08:45:03;;;;;;;5.47;3.97;;;;;;;;;;5113140;28;20906;-86
2023/09/21 08:47:31;;;;;;;3.97;3.57;;;;;;;;;;5113080;28;20729;-86
2023/09/21 08:50:00;;;;;;;4.37;3.97;;;;;;;;;;5113411;28;20747;-86
2023/09/21 08:52:27;;;;;;;5.63;4.20;;;;;;;;;;5113990;28;20192;-86
2023/09/21 08:54:56;;;;;;;7.37;3.80;;;;;;;;;;5113316;28;20234;-86
2023/09/21 08:57:23;;;;;;;9.43;3.67;;;;;;;;;;5113527;28;20228;-86
2023/09/21 08:59:51;;;;;;;8.33;3.93;;;;;;;;;;5113246;28;20223;-86
2023/09/21 09:02:18;;;;;;;5.67;3.70;;;;;;;;;;5113869;28;20666;-86
2023/09/21 09:04:46;;;;;;;6.37;3.73;;;;;;;;;;5113401;28;20228;-86
2023/09/21 09:07:14;;;;;;;3.90;3.43;;;;;;;;;;5113721;28;20602;-86
2023/09/21 09:09:41;;;;;;;4.47;3.50;;;;;;;;;;5113281;28;20227;-86
2023/09/21 09:12:22;;;;;;;5.17;3.60;;;;;;;;;;5113437;28;20214;-86
2023/09/21 09:14:49;;;;;;;4.73;3.67;;;;;;;;;;5113902;28;20236;-86
2023/09/21 09:17:16;;;;;;;5.63;3.67;;;;;;;;;;5115492;28;20248;-86
2023/09/21 09:19:44;;;;;;;4.87;4.13;;;;;;;;;;5113972;28;20234;-86
2023/09/21 09:22:11;;;;;;;4.03;3.60;;;;;;;;;;5113610;28;20207;-86
2023/09/21 09:24:38;;;;;;;5.97;4.15;;;;;;;;;;5113028;28;20284;-86
2023/09/21 09:27:05;;;;;;;9.67;4.07;;;;;;;;;;5113660;28;20200;-86
2023/09/21 09:29:34;;;;;;;6.53;3.88;;;;;;;;;;5112733;28;20234;-86
2023/09/21 09:32:01;;;;;;;4.77;3.50;;;;;;;;;;5113600;28;20204;-86
2023/09/21 09:34:29;;;;;;;3.93;3.53;;;;;;;;;;5112900;28;20720;-86
2023/09/21 09:36:56;;;;;;;6.05;3.72;;;;;;;;;;5113212;28;20219;-86
2023/09/21 09:39:24;;;;;;;5.67;4.20;;;;;;;;;;5112528;28;20598;-86
2023/09/21 09:41:51;;;;;;;4.60;3.60;;;;;;;;;;5112786;28;20714;-86
2023/09/21 09:44:22;;;;;;;5.72;3.60;;;;;;;;;;5112161;28;20227;-86
2023/09/21 09:46:54;;;;;;;4.25;3.30;;;;;;;;;;5112989;28;20653;-86
2023/09/21 09:49:23;;;;;;;4.43;3.53;;;;;;;;;;5112761;28;20228;-86
2023/09/21 09:51:52;;;;;;;6.20;3.58;;;;;;;;;;5112661;28;20207;-86
2023/09/21 09:54:21;;;;;;;4.63;4.13;;;;;;;;;;5112206;28;20231;-86
2023/09/21 09:56:51;;;;;;;3.08;2.85;;;;;;;;;;5112631;28;20596;-86
2023/09/21 09:59:19;;;;;;;5.22;3.28;;;;;;;;;;5110908;28;20601;-86
2023/09/21 10:01:46;;;;;;;4.95;3.28;;;;;;;;;;5112835;28;20200;-86
2023/09/21 10:04:15;;;;;;;4.78;3.63;;;;;;;;;;5112049;28;20242;-86
2023/09/21 10:06:42;;;;;;;3.45;3.15;;;;;;;;;;5112691;28;20200;-86
2023/09/21 10:09:10;;;;;;;4.38;3.03;;;;;;;;;;5111973;28;20211;-86
2023/09/21 10:11:39;;;;;;;4.68;3.00;;;;;;;;;;5112692;28;20204;-86
2023/09/21 10:14:11;;;;;;;3.05;2.70;;;;;;;;;;5111699;28;20227;-87
2023/09/21 10:16:39;;;;;;;2.58;2.30;;;;;;;;;;5113113;28;20669;-86
2023/09/21 10:19:07;;;;;;;2.50;2.30;;;;;;;;;;5112933;28;20204;-86
2023/09/21 10:21:38;;;;;;;1.95;1.85;;;;;;;;;;5114749;28;20200;-88
2023/09/21 10:24:06;;;;;;;3.45;1.83;;;;;;;;;;5113225;28;20314;-88
2023/09/21 10:26:34;;;;;;;4.40;1.85;;;;;;;;;;5113111;28;20200;-88
2023/09/21 10:29:03;;;;;;;2.08;1.88;;;;;;;;;;5112611;28;20210;-88
2023/09/21 10:31:32;;;;;;;2.55;2.05;;;;;;;;;;5114255;28;20211;-88
2023/09/21 10:34:06;;;;;;;2.15;1.88;;;;;;;;;;5112511;28;20296;-89
2023/09/21 10:36:33;;;;;;;2.10;1.85;;;;;;;;;;5113407;28;20224;-88
2023/09/21 10:39:24;;;;;;;1.77;1.67;;;;;;;;;;5112759;28;20684;-88
2023/09/21 10:41:53;;;;;;;2.47;1.63;;;;;;;;;;5111669;28;20204;-88
2023/09/21 10:44:39;;;;;;;1.38;1.27;;;;;;;;;;5111196;28;20769;-88
2023/09/21 10:47:06;;;;;;;1.42;1.33;;;;;;;;;;5112033;28;20210;-88
2023/09/21 10:49:35;;;;;;;2.55;1.65;;;;;;;;;;5112029;28;20223;-89
2023/09/21 10:52:03;;;;;;;1.63;1.52;;;;;;;;;;5111922;28;20665;-88
2023/09/21 10:54:30;;;;;;;1.70;1.60;;;;;;;;;;5111458;28;20637;-88
2023/09/21 10:57:00;;;;;;;1.38;1.27;;;;;;;;;;5111946;28;20219;-90
2023/09/21 10:59:30;;;;;;;1.42;1.33;;;;;;;;;;5111159;28;20684;-89
2023/09/21 11:01:57;;;;;;;2.17;1.23;;;;;;;;;;5099117;28;20196;-89
2023/09/21 11:04:24;;;;;;;1.30;1.20;;;;;;;;;;5090757;28;20759;-90
2023/09/21 11:06:52;;;;;;;1.55;1.45;;;;;;;;;;5091595;28;20211;-90
2023/09/21 11:09:19;;;;;;;2.78;1.52;;;;;;;;;;5090997;28;20714;-90
2023/09/21 11:11:47;;;;;;;1.40;1.30;;;;;;;;;;5095113;28;20258;-90
2023/09/21 11:14:15;;;;;;;1.40;1.30;;;;;;;;;;5095080;28;20213;-90
2023/09/21 11:16:42;;;;;;;1.45;1.35;;;;;;;;;;5095458;28;20224;-90
2023/09/21 11:19:11;;;;;;;1.20;1.10;;;;;;;;;;5095466;28;20205;-90
2023/09/21 11:21:38;;;;;;;1.40;1.30;;;;;;;;;;5095742;28;20204;-90
2023/09/21 11:24:06;;;;;;;2.90;1.17;;;;;;;;;;5095276;28;20232;-91
2023/09/21 11:26:34;;;;;;;1.08;1.08;;;;;;;;;;5095336;28;20606;-90
2023/09/21 11:29:02;;;;;;;1.27;1.17;;;;;;;;;;5094761;28;20209;-89
2023/09/21 11:31:31;;;;;;;1.27;1.17;;;;;;;;;;5095320;28;20201;-90
2023/09/21 11:34:05;;;;;;;1.35;1.25;;;;;;;;;;5094966;28;20247;-89
2023/09/21 11:36:32;;;;;;;1.00;1.00;;;;;;;;;;5095446;28;20285;-89
2023/09/21 11:38:59;;;;;;;1.00;1.00;;;;;;;;;;5094506;28;20216;-90
2023/09/21 11:41:27;;;;;;;1.83;1.42;;;;;;;;;;5095500;28;20220;-90
2023/09/21 11:43:54;;;;;;;1.88;1.13;;;;;;;;;;5094904;28;20244;-89
2023/09/21 11:46:24;;;;;;;1.35;1.20;;;;;;;;;;5094871;28;20375;-89
2023/09/21 11:48:53;;;;;;;1.13;1.02;;;;;;;;;;5095459;28;20208;-89
2023/09/21 11:51:26;;;;;;;0.88;0.88;;;;;;;;;;5094446;28;20232;-89
2023/09/21 11:53:53;;;;;;;1.13;1.05;;;;;;;;;;5095569;28;20227;-89
2023/09/21 11:56:20;;;;;;;1.23;1.13;;;;;;;;;;5094406;28;20221;-89
2023/09/21 11:58:47;;;;;;;0.82;0.82;;;;;;;;;;5094949;28;20204;-89
2023/09/21 12:01:19;;;;;;;3.65;0.80;;;;;;;;;;5094350;28;20718;-89
2023/09/21 12:03:50;;;;;;;1.35;1.25;;;;;;;;;;5094746;28;20236;-89
2023/09/21 12:06:19;;;;;;;1.23;1.13;;;;;;;;;;5094112;28;20263;-90
2023/09/21 12:08:46;;;;;;;1.45;1.10;;;;;;;;;;5094448;28;20678;-90
2023/09/21 12:11:13;;;;;;;1.23;0.80;;;;;;;;;;5094535;28;20599;-90
2023/09/21 12:13:42;;;;;;;1.60;1.02;;;;;;;;;;5094439;28;20312;-90
2023/09/21 12:16:09;;;;;;;0.93;0.93;;;;;;;;;;5093981;28;20320;-88
2023/09/21 12:18:37;;;;;;;1.83;1.10;;;;;;;;;;5094471;28;20221;-91
2023/09/21 12:21:04;;;;;;;0.55;0.55;;;;;;;;;;5093922;28;20239;-90
2023/09/21 12:23:35;;;;;;;1.10;1.00;;;;;;;;;;5093319;28;20311;-90
2023/09/21 12:26:02;;;;;;;1.98;1.08;;;;;;;;;;5093695;28;20240;-91
2023/09/21 12:28:29;;;;;;;1.20;1.10;;;;;;;;;;5094089;28;20659;-91
2023/09/21 12:30:56;;;;;;;0.95;0.95;;;;;;;;;;5093680;28;20289;-91
2023/09/21 12:33:23;;;;;;;1.10;0.95;;;;;;;;;;5094371;28;20269;-90
2023/09/21 12:35:51;;;;;;;1.00;1.00;;;;;;;;;;5093594;28;20256;-90
2023/09/21 12:38:18;;;;;;;1.85;0.98;;;;;;;;;;5093649;28;20702;-89
2023/09/21 12:40:47;;;;;;;1.77;1.00;;;;;;;;;;5093533;28;20742;-89
2023/09/21 12:43:16;;;;;;;1.20;1.00;;;;;;;;;;5093893;28;20243;-90
2023/09/21 12:45:43;;;;;;;1.58;1.08;;;;;;;;;;5093358;28;20236;-91
2023/09/21 12:48:11;;;;;;;3.90;1.33;;;;;;;;;;5093883;28;20200;-90
2023/09/21 12:50:39;;;;;;;1.90;0.90;;;;;;;;;;5093434;28;20738;-90
2023/09/21 12:53:06;;;;;;;0.90;0.90;;;;;;;;;;5094074;28;20208;-89
2023/09/21 12:55:34;;;;;;;0.88;0.80;;;;;;;;;;5093261;28;20236;-91
2023/09/21 12:58:06;;;;;;;0.80;0.80;;;;;;;;;;5093806;28;20217;-89
2023/09/21 13:00:33;;;;;;;1.10;1.00;;;;;;;;;;5093318;28;20239;-89
2023/09/21 13:03:02;;;;;;;1.48;0.90;;;;;;;;;;5093597;28;20227;-91
2023/09/21 13:05:29;;;;;;;1.10;1.10;;;;;;;;;;5092939;28;20228;-91
2023/09/21 13:07:56;;;;;;;1.60;1.23;;;;;;;;;;5093250;28;20236;-91
2023/09/21 13:10:23;;;;;;;1.48;1.27;;;;;;;;;;5092863;28;20228;-90
2023/09/21 13:12:51;;;;;;;1.20;1.10;;;;;;;;;;5094008;28;20208;-91
2023/09/21 13:15:19;;;;;;;0.82;0.82;;;;;;;;;;5093103;28;20733;-91
2023/09/21 13:17:47;;;;;;;0.82;0.82;;;;;;;;;;5093432;28;20307;-90
2023/09/21 13:20:17;;;;;;;1.13;1.00;;;;;;;;;;5092921;28;20237;-92
2023/09/21 13:22:44;;;;;;;0.73;0.60;;;;;;;;;;5093197;28;20220;-90
2023/09/21 13:25:12;;;;;;;0.93;0.93;;;;;;;;;;5092552;28;20665;-91
2023/09/21 13:27:39;;;;;;;1.77;0.68;;;;;;;;;;5093207;28;20212;-90
2023/09/21 13:30:07;;;;;;;0.80;0.70;;;;;;;;;;5092981;28;20229;-91
2023/09/21 13:32:36;;;;;;;1.45;0.95;;;;;;;;;;5093127;28;20295;-90
2023/09/21 13:35:03;;;;;;;0.70;0.70;;;;;;;;;;5092745;28;20240;-91
2023/09/21 13:37:32;;;;;;;0.70;0.70;;;;;;;;;;5093527;28;20228;-91
2023/09/21 13:39:59;;;;;;;0.70;0.70;;;;;;;;;;5092606;28;20224;-91
2023/09/21 13:42:27;;;;;;;1.50;0.88;;;;;;;;;;5093859;28;20291;-90
2023/09/21 13:44:54;;;;;;;1.02;0.93;;;;;;;;;;5121794;22;20276;-85
2023/09/21 13:47:22;;;;;;;2.53;0.73;;;;;;;;;;5102890;28;20200;-86
2023/09/21 13:49:51;;;;;;;1.20;0.88;;;;;;;;;;5100441;28;20224;-85
2023/09/21 13:52:18;;;;;;;0.70;0.70;;;;;;;;;;5102058;28;20237;-84
2023/09/21 13:54:46;;;;;;;0.80;0.80;;;;;;;;;;5104087;28;20306;-84
2023/09/21 13:57:13;;;;;;;2.13;0.80;;;;;;;;;;5104222;28;20239;-85
2023/09/21 13:59:40;;;;;;;2.53;1.00;;;;;;;;;;5103501;28;20224;-84
2023/09/21 14:02:09;;;;;;;1.17;0.95;;;;;;;;;;5104989;28;20235;-84
2023/09/21 14:04:36;;;;;;;1.25;1.15;;;;;;;;;;5091996;28;20236;-84
2023/09/21 14:07:05;;;;;;;1.65;1.25;;;;;;;;;;5101029;28;20269;-84
2023/09/21 14:09:32;;;;;;;1.75;0.85;;;;;;;;;;5099943;28;20242;-85
2023/09/21 14:11:59;;;;;;;0.85;0.60;;;;;;;;;;5100916;28;20208;-84
2023/09/21 14:14:26;;;;;;;0.73;0.73;;;;;;;;;;5102116;28;20240;-84
2023/09/21 14:16:53;;;;;;;1.00;0.90;;;;;;;;;;5104128;28;20669;-85
2023/09/21 14:19:20;;;;;;;1.08;0.98;;;;;;;;;;5101967;28;20228;-85
2023/09/21 14:21:47;;;;;;;0.68;0.68;;;;;;;;;;5105594;28;20573;-84
2023/09/21 14:24:16;;;;;;;0.80;0.80;;;;;;;;;;5102953;28;20821;-85
2023/09/21 14:26:43;;;;;;;0.68;0.68;;;;;;;;;;5100795;28;20220;-85
2023/09/21 14:29:10;;;;;;;1.38;0.88;;;;;;;;;;5099950;28;20632;-85
2023/09/21 14:31:37;;;;;;;2.03;0.88;;;;;;;;;;5100414;28;20622;-84
2023/09/21 14:34:04;;;;;;;0.60;0.60;;;;;;;;;;5099720;28;20228;-85
2023/09/21 14:36:31;;;;;;;0.70;0.70;;;;;;;;;;5102923;28;20287;-85
2023/09/21 14:38:58;;;;;;;2.17;0.95;;;;;;;;;;5103059;28;20215;-85
2023/09/21 14:41:27;;;;;;;0.82;0.82;;;;;;;;;;5101690;28;20215;-85
2023/09/21 14:43:55;;;;;;;1.20;1.10;;;;;;;;;;5100003;28;20228;-85
2023/09/21 14:46:22;;;;;;;1.00;0.90;;;;;;;;;;5100850;28;20224;-84
2023/09/21 14:48:49;;;;;;;0.70;0.70;;;;;;;;;;5103565;28;20204;-85